createdAt,value
2023-07-31T00:00:09.613Z,71.45
2023-07-31T00:02:37.625Z,71.23
2023-07-31T00:05:05.352Z,70.64
2023-07-31T00:07:32.904Z,69.98
2023-07-31T00:09:59.980Z,69.41
2023-07-31T00:12:26.899Z,69.07
2023-07-31T00:14:53.885Z,69.18
2023-07-31T00:17:20.929Z,68.70
2023-07-31T00:19:49.992Z,69.35
2023-07-31T00:22:17.148Z,69.64
2023-07-31T00:24:44.189Z,69.05
2023-07-31T00:27:11.140Z,68.49
2023-07-31T00:29:38.175Z,68.28
2023-07-31T00:32:06.164Z,68.55
2023-07-31T00:34:33.088Z,68.03
2023-07-31T00:37:00.168Z,67.34
2023-07-31T00:39:27.086Z,67.13
2023-07-31T00:41:54.027Z,66.99
2023-07-31T00:44:21.485Z,66.80
2023-07-31T00:46:49.040Z,66.53
2023-07-31T00:49:16.619Z,67.53
2023-07-31T00:51:44.571Z,67.89
2023-07-31T00:54:12.065Z,67.67
2023-07-31T00:56:39.805Z,67.75
2023-07-31T00:59:07.085Z,67.73
2023-07-31T01:01:34.213Z,67.83
2023-07-31T01:04:01.355Z,68.15
2023-07-31T01:06:37.776Z,67.99
2023-07-31T01:09:12.772Z,67.82
2023-07-31T01:11:51.163Z,67.66
2023-07-31T01:14:18.108Z,66.97
2023-07-31T01:16:45.090Z,66.89
2023-07-31T01:19:12.509Z,67.14
2023-07-31T01:22:04.575Z,67.93
2023-07-31T01:24:43.673Z,69.20
2023-07-31T01:27:13.127Z,69.59
2023-07-31T01:29:44.081Z,69.62
2023-07-31T01:32:11.063Z,69.46
2023-07-31T01:34:38.133Z,69.50
2023-07-31T01:37:05.778Z,69.57
2023-07-31T01:39:32.609Z,69.90
2023-07-31T01:41:59.573Z,70.04
2023-07-31T01:44:26.513Z,69.87
2023-07-31T01:46:53.630Z,69.92
2023-07-31T01:49:21.015Z,69.68
2023-07-31T01:51:48.694Z,70.19
2023-07-31T01:54:15.947Z,70.46
2023-07-31T01:56:43.196Z,70.60
2023-07-31T01:59:10.739Z,70.12
2023-07-31T02:01:37.733Z,69.83
2023-07-31T02:04:05.653Z,69.74
2023-07-31T02:06:32.800Z,69.13
2023-07-31T02:08:59.852Z,69.09
2023-07-31T02:11:26.840Z,68.84
2023-07-31T02:13:53.752Z,69.59
2023-07-31T02:16:20.769Z,69.76
2023-07-31T02:18:48.066Z,70.03
2023-07-31T02:21:14.991Z,70.15
2023-07-31T02:23:42.274Z,70.61
2023-07-31T02:26:09.181Z,71.35
2023-07-31T02:28:36.353Z,71.81
2023-07-31T02:31:03.586Z,71.64
2023-07-31T02:33:30.539Z,71.34
2023-07-31T02:35:57.484Z,71.29
2023-07-31T02:38:24.494Z,71.23
2023-07-31T02:40:51.597Z,70.80
2023-07-31T02:43:18.555Z,70.61
2023-07-31T02:45:45.575Z,70.34
2023-07-31T02:48:12.710Z,70.03
2023-07-31T02:50:39.798Z,69.48
2023-07-31T02:53:06.804Z,69.15
2023-07-31T02:55:33.951Z,68.92
2023-07-31T02:58:00.898Z,68.93
2023-07-31T03:00:28.251Z,68.88
2023-07-31T03:02:55.229Z,69.01
2023-07-31T03:05:22.764Z,69.52
2023-07-31T03:07:49.721Z,70.01
2023-07-31T03:10:16.855Z,70.39
2023-07-31T03:12:48.001Z,70.62
2023-07-31T03:15:15.041Z,70.58
2023-07-31T03:17:42.107Z,70.43
2023-07-31T03:20:09.757Z,70.21
2023-07-31T03:22:37.207Z,70.14
2023-07-31T03:25:05.813Z,70.01
2023-07-31T03:27:32.842Z,70.06
2023-07-31T03:30:00.397Z,70.18
2023-07-31T03:32:27.361Z,70.30
2023-07-31T03:34:54.636Z,70.32
2023-07-31T03:37:21.647Z,70.54
2023-07-31T03:39:48.599Z,70.87
2023-07-31T03:42:15.649Z,71.01
2023-07-31T03:44:42.586Z,71.19
2023-07-31T03:47:10.219Z,71.22
2023-07-31T03:49:38.115Z,71.74
2023-07-31T03:52:05.499Z,71.83
2023-07-31T03:54:32.410Z,72.11
2023-07-31T03:57:00.080Z,72.37
2023-07-31T03:59:27.026Z,72.22
2023-07-31T04:01:54.122Z,72.34
2023-07-31T04:04:21.126Z,72.56
2023-07-31T04:06:48.062Z,72.61
2023-07-31T04:09:15.023Z,72.88
2023-07-31T04:11:42.054Z,72.58
2023-07-31T04:14:09.335Z,72.70
2023-07-31T04:16:36.392Z,72.75
2023-07-31T04:19:04.643Z,72.81
2023-07-31T04:21:31.580Z,72.55
2023-07-31T04:23:59.238Z,72.37
2023-07-31T04:26:26.297Z,72.18
2023-07-31T04:28:53.336Z,72.12
2023-07-31T04:31:20.340Z,72.19
2023-07-31T04:33:47.427Z,71.99
2023-07-31T04:36:14.400Z,72.15
2023-07-31T04:38:41.933Z,72.46
2023-07-31T04:41:08.988Z,72.28
2023-07-31T04:43:35.974Z,72.41
2023-07-31T04:46:03.101Z,72.47
2023-07-31T04:48:30.337Z,72.58
2023-07-31T04:50:57.173Z,72.15
2023-07-31T04:53:24.130Z,72.16
2023-07-31T04:55:51.166Z,72.21
2023-07-31T04:58:18.233Z,71.89
2023-07-31T05:00:45.579Z,72.24
2023-07-31T05:03:12.603Z,72.17
2023-07-31T05:05:40.296Z,72.20
2023-07-31T05:08:07.217Z,71.62
2023-07-31T05:10:34.159Z,71.66
2023-07-31T05:13:01.105Z,71.13
2023-07-31T05:15:28.681Z,71.39
2023-07-31T05:17:55.880Z,71.83
2023-07-31T05:20:23.100Z,71.53
2023-07-31T05:22:51.445Z,71.52
2023-07-31T05:25:18.426Z,71.62
2023-07-31T05:27:45.335Z,71.92
2023-07-31T05:30:12.386Z,71.79
2023-07-31T05:32:39.563Z,71.62
2023-07-31T05:35:07.093Z,71.56
2023-07-31T05:37:34.046Z,71.05
2023-07-31T05:40:01.087Z,70.88
2023-07-31T05:42:28.058Z,70.55
2023-07-31T05:44:55.077Z,70.65
2023-07-31T05:47:22.061Z,70.43
2023-07-31T05:49:50.305Z,70.06
2023-07-31T05:52:17.656Z,69.63
2023-07-31T05:54:44.803Z,69.95
2023-07-31T05:57:11.953Z,69.35
2023-07-31T05:59:39.211Z,68.38
2023-07-31T06:02:06.665Z,67.95
2023-07-31T06:04:33.609Z,68.15
2023-07-31T06:07:01.271Z,67.55
2023-07-31T06:09:28.361Z,66.98
2023-07-31T06:11:55.262Z,66.44
2023-07-31T06:14:22.257Z,66.35
2023-07-31T06:16:49.256Z,65.69
2023-07-31T06:19:16.313Z,65.09
2023-07-31T06:21:44.687Z,64.69
2023-07-31T06:24:12.964Z,64.41
2023-07-31T06:26:40.856Z,63.99
2023-07-31T06:29:08.186Z,64.06
2023-07-31T06:31:35.353Z,63.35
2023-07-31T06:34:02.375Z,63.05
2023-07-31T06:36:29.630Z,63.53
2023-07-31T06:38:56.679Z,63.63
2023-07-31T06:41:23.826Z,63.05
2023-07-31T06:43:50.782Z,62.79
2023-07-31T06:46:17.866Z,62.34
2023-07-31T06:48:44.988Z,61.28
2023-07-31T06:51:12.012Z,60.90
2023-07-31T06:53:39.506Z,60.88
2023-07-31T06:56:06.420Z,60.49
2023-07-31T06:58:33.471Z,60.55
2023-07-31T07:01:00.891Z,60.44
2023-07-31T07:03:27.969Z,60.82
2023-07-31T07:05:54.938Z,60.59
2023-07-31T07:08:22.081Z,60.31
2023-07-31T07:10:49.131Z,60.37
2023-07-31T07:13:16.366Z,60.47
2023-07-31T07:15:43.335Z,59.57
2023-07-31T07:18:11.424Z,59.74
2023-07-31T07:20:38.541Z,59.41
2023-07-31T07:23:05.681Z,59.20
2023-07-31T07:25:32.934Z,58.32
2023-07-31T07:28:00.149Z,57.99
2023-07-31T07:30:27.241Z,57.91
2023-07-31T07:32:54.216Z,57.73
2023-07-31T07:35:21.945Z,57.00
2023-07-31T07:37:53.270Z,57.38
2023-07-31T07:40:21.159Z,56.96
2023-07-31T07:42:48.208Z,56.81
2023-07-31T07:45:15.276Z,56.57
2023-07-31T07:47:43.035Z,56.78
2023-07-31T07:50:10.403Z,55.53
2023-07-31T07:52:37.319Z,55.03
2023-07-31T07:55:04.919Z,56.09
2023-07-31T07:57:32.028Z,55.58
2023-07-31T07:59:58.984Z,54.41
2023-07-31T08:02:25.957Z,54.11
2023-07-31T08:04:53.075Z,53.60
2023-07-31T08:07:20.236Z,52.80
2023-07-31T08:09:47.167Z,51.70
2023-07-31T08:12:14.128Z,52.39
2023-07-31T08:14:41.292Z,52.77
2023-07-31T08:17:08.364Z,52.66
2023-07-31T08:19:36.289Z,52.22
2023-07-31T08:22:03.835Z,52.70
2023-07-31T08:24:30.787Z,52.60
2023-07-31T08:26:58.135Z,52.74
2023-07-31T08:29:26.126Z,51.61
2023-07-31T08:31:53.156Z,51.11
2023-07-31T08:34:20.115Z,52.02
2023-07-31T08:36:47.043Z,51.46
2023-07-31T08:39:14.226Z,50.50
2023-07-31T08:41:41.144Z,49.41
2023-07-31T08:44:08.647Z,50.40
2023-07-31T08:46:35.679Z,51.54
2023-07-31T08:49:05.354Z,52.29
2023-07-31T08:51:34.987Z,51.88
2023-07-31T08:54:02.218Z,51.85
2023-07-31T08:56:29.498Z,52.26
2023-07-31T08:58:56.614Z,52.65
2023-07-31T09:01:23.700Z,52.42
2023-07-31T09:03:50.703Z,52.31
2023-07-31T09:06:18.878Z,52.83
2023-07-31T09:08:46.152Z,53.38
2023-07-31T09:11:14.509Z,54.73
2023-07-31T09:13:41.485Z,54.55
2023-07-31T09:16:09.808Z,54.33
2023-07-31T09:18:59.432Z,52.11
2023-07-31T09:21:28.232Z,53.62
2023-07-31T09:23:55.484Z,52.80
2023-07-31T09:26:35.812Z,52.00
2023-07-31T09:29:05.752Z,51.36
2023-07-31T09:31:43.432Z,50.72
2023-07-31T09:34:12.485Z,51.11
2023-07-31T09:36:43.591Z,51.85
2023-07-31T09:39:11.946Z,52.99
2023-07-31T09:41:44.778Z,53.71
2023-07-31T09:44:12.101Z,52.93
2023-07-31T09:46:39.832Z,52.28
2023-07-31T09:49:10.511Z,53.08
2023-07-31T09:51:41.718Z,53.72
2023-07-31T09:54:13.172Z,53.46
2023-07-31T09:56:45.816Z,53.71
2023-07-31T09:59:14.024Z,53.91
2023-07-31T10:01:42.352Z,53.38
2023-07-31T10:04:10.679Z,53.26
2023-07-31T10:06:38.732Z,53.18
2023-07-31T10:09:11.594Z,53.36
2023-07-31T10:11:42.288Z,53.67
2023-07-31T10:14:09.213Z,54.46
2023-07-31T10:16:39.141Z,54.11
2023-07-31T10:19:06.582Z,54.08
2023-07-31T10:21:35.883Z,52.40
2023-07-31T10:24:04.263Z,53.28
2023-07-31T10:26:34.694Z,54.39
2023-07-31T10:29:02.168Z,54.40
2023-07-31T10:31:29.414Z,54.46
2023-07-31T10:33:57.976Z,54.94
2023-07-31T10:36:24.937Z,54.87
2023-07-31T10:38:52.074Z,54.34
2023-07-31T10:41:19.224Z,54.63
2023-07-31T10:43:47.919Z,54.67
2023-07-31T10:46:15.383Z,54.33
2023-07-31T10:48:42.435Z,54.39
2023-07-31T10:51:12.700Z,54.51
2023-07-31T10:53:41.336Z,54.38
2023-07-31T10:56:09.911Z,54.41
2023-07-31T10:58:37.685Z,53.96
2023-07-31T11:01:05.772Z,54.38
2023-07-31T11:03:45.480Z,54.39
2023-07-31T11:06:16.205Z,54.21
2023-07-31T11:08:47.648Z,54.26
2023-07-31T11:11:16.462Z,55.13
2023-07-31T11:13:50.384Z,55.30
2023-07-31T11:16:18.390Z,55.39
2023-07-31T11:18:46.312Z,55.66
2023-07-31T11:21:17.708Z,54.88
2023-07-31T11:23:50.306Z,54.65
2023-07-31T11:26:17.898Z,54.92
2023-07-31T11:28:50.435Z,54.97
2023-07-31T11:31:18.559Z,55.56
2023-07-31T11:33:45.643Z,57.02
2023-07-31T11:36:19.771Z,56.49
2023-07-31T11:38:46.855Z,54.75
2023-07-31T11:41:15.105Z,54.17
2023-07-31T11:43:42.495Z,53.79
2023-07-31T11:46:10.295Z,52.85
2023-07-31T11:48:37.934Z,52.03
2023-07-31T11:51:06.513Z,51.60
2023-07-31T11:53:43.727Z,51.58
2023-07-31T11:56:12.679Z,51.92
2023-07-31T11:58:39.932Z,51.34
2023-07-31T12:01:06.883Z,51.24
2023-07-31T12:03:34.162Z,50.88
2023-07-31T12:06:02.965Z,51.40
2023-07-31T12:08:30.285Z,49.94
2023-07-31T12:11:05.823Z,48.66
2023-07-31T12:13:33.498Z,49.96
2023-07-31T12:16:02.293Z,51.09
2023-07-31T12:18:35.148Z,50.73
2023-07-31T12:21:03.442Z,49.42
2023-07-31T12:23:32.731Z,48.45
2023-07-31T12:26:02.639Z,47.89
2023-07-31T12:28:29.947Z,47.44
2023-07-31T12:31:00.940Z,48.40
2023-07-31T12:33:32.726Z,49.32
2023-07-31T12:36:03.836Z,49.72
2023-07-31T12:38:31.200Z,50.38
2023-07-31T12:40:58.243Z,51.22
2023-07-31T12:43:25.183Z,51.93
2023-07-31T12:45:52.583Z,51.99
2023-07-31T12:48:19.994Z,51.86
2023-07-31T12:50:47.077Z,52.53
2023-07-31T12:53:13.985Z,52.04
2023-07-31T12:55:41.081Z,50.34
2023-07-31T12:58:08.085Z,50.20
2023-07-31T13:00:35.848Z,49.74
2023-07-31T13:03:03.256Z,50.46
2023-07-31T13:05:30.366Z,50.99
2023-07-31T13:07:57.519Z,51.05
2023-07-31T13:10:25.019Z,50.97
2023-07-31T13:12:52.342Z,50.74
2023-07-31T13:15:19.509Z,51.10
2023-07-31T13:17:47.213Z,51.90
2023-07-31T13:20:14.176Z,52.74
2023-07-31T13:22:42.559Z,52.37
2023-07-31T13:25:11.461Z,52.70
2023-07-31T13:27:38.908Z,52.61
2023-07-31T13:30:07.002Z,52.84
2023-07-31T13:32:34.171Z,52.43
2023-07-31T13:35:01.293Z,52.19
2023-07-31T13:37:28.418Z,52.08
2023-07-31T13:39:55.574Z,52.07
2023-07-31T13:42:23.247Z,52.06
2023-07-31T13:44:50.584Z,51.87
2023-07-31T13:47:17.649Z,51.27
2023-07-31T13:49:45.295Z,51.46
2023-07-31T13:52:12.476Z,51.75
2023-07-31T13:54:39.494Z,51.76
2023-07-31T13:57:07.266Z,51.87
2023-07-31T13:59:34.415Z,51.68
2023-07-31T14:02:02.985Z,51.95
2023-07-31T14:04:30.150Z,52.48
2023-07-31T14:06:57.245Z,52.40
2023-07-31T14:09:24.396Z,52.89
2023-07-31T14:11:51.606Z,53.06
2023-07-31T14:14:20.216Z,52.89
2023-07-31T14:16:47.407Z,52.90
2023-07-31T14:19:15.214Z,52.90
2023-07-31T14:21:42.347Z,52.72
2023-07-31T14:24:09.395Z,52.72
2023-07-31T14:26:36.349Z,52.95
2023-07-31T14:29:03.592Z,53.17
2023-07-31T14:31:30.955Z,53.46
2023-07-31T14:33:59.219Z,53.78
2023-07-31T14:36:26.262Z,54.10
2023-07-31T14:38:53.621Z,54.47
2023-07-31T14:41:21.281Z,53.60
2023-07-31T14:43:48.650Z,53.74
2023-07-31T14:46:15.725Z,54.29
2023-07-31T14:48:42.956Z,54.95
2023-07-31T14:51:09.987Z,55.72
2023-07-31T14:53:37.673Z,55.55
2023-07-31T14:56:04.997Z,55.29
2023-07-31T14:58:32.095Z,54.70
2023-07-31T15:00:59.209Z,54.51
2023-07-31T15:03:27.171Z,54.14
2023-07-31T15:05:54.323Z,54.74
2023-07-31T15:08:21.373Z,54.60
2023-07-31T15:10:48.323Z,54.89
2023-07-31T15:13:15.364Z,54.57
2023-07-31T15:15:42.434Z,54.44
2023-07-31T15:18:09.579Z,54.60
2023-07-31T15:20:36.742Z,54.20
2023-07-31T15:23:03.962Z,54.28
2023-07-31T15:25:30.911Z,52.90
2023-07-31T15:27:58.080Z,53.04
2023-07-31T15:30:25.098Z,53.40
2023-07-31T15:32:53.320Z,53.06
2023-07-31T15:35:22.500Z,52.92
2023-07-31T15:37:49.824Z,52.78
2023-07-31T15:40:17.489Z,52.99
2023-07-31T15:42:44.431Z,53.38
2023-07-31T15:45:12.092Z,53.47
2023-07-31T15:47:39.774Z,53.45
2023-07-31T15:50:07.456Z,53.49
2023-07-31T15:52:34.770Z,53.03
2023-07-31T15:55:01.752Z,53.02
2023-07-31T15:57:31.064Z,53.05
2023-07-31T15:59:58.384Z,53.61
2023-07-31T16:02:25.448Z,53.64
2023-07-31T16:04:52.480Z,53.26
2023-07-31T16:07:20.957Z,52.49
2023-07-31T16:09:47.998Z,52.16
2023-07-31T16:12:15.178Z,52.33
2023-07-31T16:14:42.398Z,51.61
2023-07-31T16:17:09.472Z,51.62
2023-07-31T16:19:36.636Z,51.64
2023-07-31T16:22:04.278Z,51.68
2023-07-31T16:24:31.510Z,52.14
2023-07-31T16:26:58.656Z,52.58
2023-07-31T16:29:25.717Z,52.36
2023-07-31T16:31:57.993Z,52.55
2023-07-31T16:34:27.008Z,53.15
2023-07-31T16:36:57.167Z,53.12
2023-07-31T16:39:24.953Z,52.47
2023-07-31T16:41:52.436Z,51.71
2023-07-31T16:44:19.456Z,52.20
2023-07-31T16:46:46.527Z,52.47
2023-07-31T16:49:13.566Z,52.79
2023-07-31T16:51:41.024Z,52.89
2023-07-31T16:54:08.273Z,52.73
2023-07-31T16:56:48.556Z,52.43
2023-07-31T16:59:20.491Z,52.22
2023-07-31T17:01:48.067Z,52.35
2023-07-31T17:04:15.701Z,52.58
2023-07-31T17:06:43.591Z,52.26
2023-07-31T17:09:10.930Z,51.90
2023-07-31T17:11:38.812Z,52.15
2023-07-31T17:14:09.124Z,50.88
2023-07-31T17:16:36.478Z,51.25
2023-07-31T17:19:05.515Z,51.96
2023-07-31T17:21:32.826Z,51.65
2023-07-31T17:24:01.236Z,52.45
2023-07-31T17:26:29.174Z,53.05
2023-07-31T17:28:56.318Z,53.40
2023-07-31T17:31:23.854Z,53.67
2023-07-31T17:33:51.130Z,54.61
2023-07-31T17:36:18.187Z,55.54
2023-07-31T17:38:45.538Z,56.63
2023-07-31T17:41:12.620Z,56.99
2023-07-31T17:43:39.730Z,57.39
2023-07-31T17:46:07.505Z,57.91
2023-07-31T17:48:34.644Z,58.37
2023-07-31T17:51:02.004Z,59.90
2023-07-31T17:53:29.163Z,60.12
2023-07-31T17:55:56.200Z,60.70
2023-07-31T17:58:23.256Z,61.29
2023-07-31T18:00:51.652Z,61.72
2023-07-31T18:03:18.971Z,62.02
2023-07-31T18:05:46.576Z,62.70
2023-07-31T18:08:13.822Z,62.38
2023-07-31T18:10:45.557Z,62.53
2023-07-31T18:13:13.525Z,62.76
2023-07-31T18:15:45.822Z,63.20
2023-07-31T18:18:13.503Z,63.75
2023-07-31T18:20:41.216Z,64.33
2023-07-31T18:23:08.319Z,64.68
2023-07-31T18:25:35.312Z,65.16
2023-07-31T18:28:03.295Z,65.30
2023-07-31T18:30:30.571Z,65.52
2023-07-31T18:32:58.071Z,65.91
2023-07-31T18:35:25.665Z,66.41
2023-07-31T18:37:52.740Z,66.91
2023-07-31T18:40:20.056Z,67.29
2023-07-31T18:42:47.508Z,67.78
2023-07-31T18:45:14.668Z,68.36
2023-07-31T18:47:41.885Z,68.73
2023-07-31T18:50:10.003Z,69.06
2023-07-31T18:52:37.884Z,69.19
2023-07-31T18:55:05.723Z,69.19
2023-07-31T18:57:32.879Z,69.28
2023-07-31T19:00:01.051Z,69.53
2023-07-31T19:02:28.221Z,69.66
2023-07-31T19:04:55.970Z,69.59
2023-07-31T19:07:23.617Z,69.75
2023-07-31T19:09:59.973Z,70.01
2023-07-31T19:12:32.362Z,69.78
2023-07-31T19:15:00.016Z,70.01
2023-07-31T19:17:27.436Z,70.16
2023-07-31T19:19:55.377Z,70.09
2023-07-31T19:22:22.592Z,69.97
2023-07-31T19:24:49.649Z,69.81
2023-07-31T19:27:16.994Z,69.80
2023-07-31T19:29:44.554Z,69.86
2023-07-31T19:32:13.977Z,70.06
2023-07-31T19:34:41.723Z,69.90
2023-07-31T19:37:09.075Z,69.72
2023-07-31T19:39:36.224Z,69.77
2023-07-31T19:42:03.887Z,69.82
2023-07-31T19:44:31.446Z,70.09
2023-07-31T19:46:58.490Z,69.94
2023-07-31T19:49:28.313Z,70.05
2023-07-31T19:51:55.356Z,70.27
2023-07-31T19:54:22.844Z,70.28
2023-07-31T19:56:50.881Z,70.36
2023-07-31T19:59:19.539Z,70.46
2023-07-31T20:01:46.764Z,70.72
2023-07-31T20:04:13.765Z,70.54
2023-07-31T20:06:41.316Z,70.67
2023-07-31T20:09:08.996Z,70.88
2023-07-31T20:11:35.954Z,70.67
2023-07-31T20:14:06.882Z,70.75
2023-07-31T20:16:39.328Z,70.96
2023-07-31T20:19:07.643Z,71.09
2023-07-31T20:21:35.181Z,71.04
2023-07-31T20:24:02.171Z,70.74
2023-07-31T20:26:29.286Z,70.69
2023-07-31T20:28:56.323Z,70.74
2023-07-31T20:31:23.285Z,70.37
2023-07-31T20:33:50.726Z,70.54
2023-07-31T20:36:17.698Z,70.18
2023-07-31T20:38:44.729Z,69.96
2023-07-31T20:41:12.512Z,70.01
2023-07-31T20:43:39.638Z,69.92
2023-07-31T20:46:06.875Z,69.83
2023-07-31T20:48:34.656Z,69.61
2023-07-31T20:51:02.520Z,69.94
2023-07-31T20:53:30.496Z,69.72
2023-07-31T20:55:59.071Z,69.46
2023-07-31T20:58:27.410Z,69.54
2023-07-31T21:00:54.818Z,69.36
2023-07-31T21:03:21.830Z,69.41
2023-07-31T21:05:50.746Z,69.13
2023-07-31T21:08:17.992Z,69.30
2023-07-31T21:10:44.941Z,69.48
2023-07-31T21:13:12.099Z,69.78
2023-07-31T21:15:42.178Z,69.69
2023-07-31T21:18:09.369Z,69.22
2023-07-31T21:20:37.237Z,68.75
2023-07-31T21:23:08.782Z,68.91
2023-07-31T21:25:38.792Z,69.02
2023-07-31T21:28:05.941Z,69.45
2023-07-31T21:30:34.940Z,69.58
2023-07-31T21:33:02.155Z,69.95
2023-07-31T21:35:29.466Z,70.77
2023-07-31T21:37:56.597Z,71.21
2023-07-31T21:40:23.653Z,71.80
2023-07-31T21:42:50.796Z,71.98
2023-07-31T21:45:18.116Z,71.88
2023-07-31T21:47:45.217Z,71.28
2023-07-31T21:50:12.331Z,70.86
2023-07-31T21:52:40.106Z,70.64
2023-07-31T21:55:07.868Z,70.81
2023-07-31T21:57:36.143Z,71.07
2023-07-31T22:00:04.422Z,70.91
2023-07-31T22:02:32.826Z,70.99
2023-07-31T22:04:59.951Z,71.24
2023-07-31T22:07:27.034Z,71.73
2023-07-31T22:09:54.252Z,71.94
2023-07-31T22:12:21.401Z,72.10
2023-07-31T22:14:48.346Z,71.90
2023-07-31T22:17:15.335Z,71.72
2023-07-31T22:19:42.237Z,72.52
2023-07-31T22:22:09.179Z,73.11
2023-07-31T22:24:38.293Z,73.10
2023-07-31T22:27:05.941Z,73.36
2023-07-31T22:29:32.913Z,73.47
2023-07-31T22:32:00.140Z,73.50
2023-07-31T22:34:27.119Z,73.54
2023-07-31T22:36:54.027Z,73.63
2023-07-31T22:39:21.084Z,74.12
2023-07-31T22:41:48.023Z,74.35
2023-07-31T22:44:15.070Z,74.51
2023-07-31T22:46:42.476Z,74.94
2023-07-31T22:49:10.730Z,75.12
2023-07-31T22:51:37.776Z,75.26
2023-07-31T22:54:04.901Z,75.36
2023-07-31T22:56:31.944Z,75.44
2023-07-31T22:58:59.092Z,75.40
2023-07-31T23:01:27.924Z,75.73
2023-07-31T23:03:54.935Z,75.68
2023-07-31T23:06:22.078Z,75.51
2023-07-31T23:08:49.039Z,75.52
2023-07-31T23:11:16.070Z,75.77
2023-07-31T23:13:43.142Z,76.13
2023-07-31T23:16:10.085Z,77.00
2023-07-31T23:18:37.146Z,77.07
2023-07-31T23:21:04.259Z,76.76
2023-07-31T23:23:31.755Z,76.70
2023-07-31T23:25:59.076Z,76.89
2023-07-31T23:28:26.044Z,77.54
2023-07-31T23:30:52.975Z,77.96
2023-07-31T23:33:19.907Z,78.09
2023-07-31T23:35:47.078Z,77.71
2023-07-31T23:38:15.646Z,77.47
2023-07-31T23:40:42.520Z,77.71
2023-07-31T23:43:09.428Z,77.82
2023-07-31T23:45:36.603Z,77.76
2023-07-31T23:48:04.056Z,77.64
2023-07-31T23:50:32.312Z,77.55
2023-07-31T23:52:59.376Z,77.66
2023-07-31T23:55:26.329Z,77.56
2023-07-31T23:57:53.271Z,77.33
